createdAt,value
2019-01-31T00:00:35.402Z,-0.01
2019-01-31T00:03:05.882Z,-0.01
2019-01-31T00:05:38.323Z,-0.04
2019-01-31T00:08:10.698Z,-0.01
2019-01-31T00:10:41.087Z,0.02
2019-01-31T00:13:13.511Z,0.02
2019-01-31T00:15:45.815Z,-0.03
2019-01-31T00:18:18.163Z,-0.05
2019-01-31T00:20:50.531Z,-0.02
2019-01-31T00:23:24.249Z,-0.01
2019-01-31T00:25:56.550Z,0.06
2019-01-31T00:28:28.920Z,-0.07
2019-01-31T00:31:01.222Z,0.03
2019-01-31T00:33:33.707Z,0.05
2019-01-31T00:36:05.997Z,0.02
2019-01-31T00:38:38.406Z,-0.02
2019-01-31T00:41:08.939Z,0.03
2019-01-31T00:43:41.339Z,-0.01
2019-01-31T00:46:11.844Z,0.06
2019-01-31T00:48:45.689Z,0.01
2019-01-31T00:51:24.221Z,-0.05
2019-01-31T00:53:56.570Z,-0.02
2019-01-31T00:56:27.014Z,0.00
2019-01-31T00:58:57.455Z,-0.02
2019-01-31T01:01:29.777Z,0.02
2019-01-31T01:04:02.109Z,0.01
2019-01-31T01:06:32.582Z,0.02
2019-01-31T01:09:07.767Z,0.02
2019-01-31T01:11:39.438Z,0.01
2019-01-31T01:14:11.763Z,0.04
2019-01-31T01:16:42.170Z,0.03
2019-01-31T01:19:14.494Z,-0.02
2019-01-31T01:21:47.961Z,0.02
2019-01-31T01:24:20.419Z,0.00
2019-01-31T01:26:52.849Z,0.05
2019-01-31T01:29:25.178Z,0.11
2019-01-31T01:31:57.700Z,0.07
2019-01-31T01:34:28.179Z,0.06
2019-01-31T01:37:00.550Z,0.13
2019-01-31T01:39:30.969Z,0.04
2019-01-31T01:42:01.359Z,0.08
2019-01-31T01:44:31.894Z,0.02
2019-01-31T01:47:04.352Z,-0.03
2019-01-31T01:49:36.697Z,0.04
2019-01-31T01:52:09.055Z,0.13
2019-01-31T01:54:41.394Z,0.15
2019-01-31T01:57:13.811Z,0.10
2019-01-31T01:59:46.711Z,0.01
2019-01-31T02:02:19.074Z,0.14
2019-01-31T02:04:51.460Z,0.16
2019-01-31T02:07:23.755Z,0.14
2019-01-31T02:09:56.066Z,0.20
2019-01-31T02:12:28.381Z,0.12
2019-01-31T02:14:58.791Z,0.16
2019-01-31T02:17:31.154Z,0.02
2019-01-31T02:20:03.524Z,0.10
2019-01-31T02:22:36.514Z,0.03
2019-01-31T02:25:08.829Z,0.05
2019-01-31T02:27:41.211Z,0.09
2019-01-31T02:30:13.533Z,0.04
2019-01-31T02:32:40.271Z,0.08
2019-01-31T02:35:10.652Z,0.06
2019-01-31T02:37:42.956Z,0.07
2019-01-31T02:40:14.346Z,0.11
2019-01-31T02:42:46.747Z,0.03
2019-01-31T02:45:19.177Z,0.05
2019-01-31T02:47:49.709Z,0.08
2019-01-31T02:50:22.236Z,0.07
2019-01-31T02:52:54.540Z,0.07
2019-01-31T02:55:24.977Z,0.11
2019-01-31T02:57:57.294Z,0.15
2019-01-31T03:00:29.647Z,0.28
2019-01-31T03:03:02.037Z,0.26
2019-01-31T03:05:34.470Z,0.23
2019-01-31T03:08:04.854Z,0.25
2019-01-31T03:10:39.351Z,0.20
2019-01-31T03:13:09.533Z,0.10
2019-01-31T03:15:41.918Z,0.22
2019-01-31T03:18:14.408Z,0.11
2019-01-31T03:20:46.821Z,0.19
2019-01-31T03:23:19.179Z,0.11
2019-01-31T03:25:51.568Z,0.05
2019-01-31T03:28:24.006Z,0.04
2019-01-31T03:30:54.397Z,0.16
2019-01-31T03:34:00.326Z,0.11
2019-01-31T03:36:32.634Z,0.10
2019-01-31T03:39:04.965Z,0.05
2019-01-31T03:41:37.356Z,0.01
2019-01-31T03:44:09.810Z,0.00
2019-01-31T03:46:42.104Z,0.05
2019-01-31T03:49:10.642Z,0.15
2019-01-31T03:51:42.999Z,0.05
2019-01-31T03:54:15.352Z,0.08
2019-01-31T03:56:47.765Z,0.02
2019-01-31T03:59:20.206Z,-0.09
2019-01-31T04:01:52.563Z,0.02
2019-01-31T04:04:24.895Z,0.01
2019-01-31T04:06:51.466Z,-0.01
2019-01-31T04:09:18.059Z,0.06
2019-01-31T04:11:44.701Z,0.16
2019-01-31T04:14:11.259Z,0.08
2019-01-31T04:16:37.812Z,0.15
2019-01-31T04:19:04.405Z,0.04
2019-01-31T04:21:31.035Z,0.06
2019-01-31T04:23:57.592Z,0.06
2019-01-31T04:26:25.324Z,0.02
2019-01-31T04:28:51.968Z,-0.06
2019-01-31T04:31:18.565Z,-0.14
2019-01-31T04:34:42.729Z,-0.02
2019-01-31T04:37:09.314Z,0.04
2019-01-31T04:39:35.938Z,0.07
2019-01-31T04:42:02.512Z,0.01
2019-01-31T04:44:29.087Z,0.03
2019-01-31T04:46:55.733Z,0.01
2019-01-31T04:49:22.381Z,0.00
2019-01-31T04:51:49.114Z,0.04
2019-01-31T04:54:15.878Z,0.13
2019-01-31T04:56:42.444Z,0.11
2019-01-31T04:59:09.051Z,0.20
2019-01-31T05:01:35.862Z,0.24
2019-01-31T05:04:02.786Z,0.22
2019-01-31T05:06:29.863Z,0.22
2019-01-31T05:08:56.886Z,0.18
2019-01-31T05:11:23.890Z,0.12
2019-01-31T05:13:50.677Z,0.04
2019-01-31T05:16:17.654Z,0.04
2019-01-31T05:18:44.504Z,0.08
2019-01-31T05:21:11.070Z,0.07
2019-01-31T05:23:37.642Z,-0.04
2019-01-31T05:26:04.519Z,-0.06
2019-01-31T05:28:31.065Z,-0.03
2019-01-31T05:30:57.684Z,0.09
2019-01-31T05:33:24.349Z,-0.12
2019-01-31T05:35:50.968Z,-0.07
2019-01-31T05:38:17.707Z,0.00
2019-01-31T05:40:55.175Z,0.12
2019-01-31T05:43:12.849Z,0.13
2019-01-31T05:45:39.586Z,0.02
2019-01-31T05:48:06.203Z,0.05
2019-01-31T05:50:32.906Z,0.04
2019-01-31T05:52:59.572Z,0.06
2019-01-31T05:55:26.239Z,0.12
2019-01-31T05:57:52.963Z,0.06
2019-01-31T06:00:24.043Z,0.08
2019-01-31T06:02:50.942Z,0.05
2019-01-31T06:05:17.945Z,0.11
2019-01-31T06:07:44.505Z,0.03
2019-01-31T06:10:11.772Z,0.10
2019-01-31T06:12:38.662Z,0.10
2019-01-31T06:15:11.229Z,0.18
2019-01-31T06:17:38.190Z,0.10
2019-01-31T06:20:09.543Z,0.00
2019-01-31T06:22:36.217Z,0.09
2019-01-31T06:25:04.224Z,0.04
2019-01-31T06:27:31.132Z,0.08
2019-01-31T06:29:58.137Z,0.08
2019-01-31T06:32:24.939Z,0.16
2019-01-31T06:34:51.769Z,0.11
2019-01-31T06:37:18.440Z,0.10
2019-01-31T06:39:45.009Z,0.14
2019-01-31T06:42:12.920Z,0.07
2019-01-31T06:44:39.525Z,0.08
2019-01-31T06:47:06.137Z,0.14
2019-01-31T06:49:32.784Z,0.19
2019-01-31T06:51:59.356Z,0.14
2019-01-31T06:54:25.972Z,0.19
2019-01-31T06:56:52.610Z,0.12
2019-01-31T06:59:19.220Z,0.21
2019-01-31T07:01:45.782Z,0.10
2019-01-31T07:04:12.392Z,0.08
2019-01-31T07:06:39.303Z,0.04
2019-01-31T07:09:08.516Z,0.16
2019-01-31T07:11:35.580Z,0.13
2019-01-31T07:14:02.328Z,0.11
2019-01-31T07:16:29.011Z,0.05
2019-01-31T07:18:55.657Z,0.03
2019-01-31T07:21:22.241Z,0.07
2019-01-31T07:23:48.885Z,0.12
2019-01-31T07:26:15.791Z,0.02
2019-01-31T07:28:42.524Z,0.03
2019-01-31T07:31:09.223Z,0.02
2019-01-31T07:33:35.885Z,0.09
2019-01-31T07:36:02.675Z,0.07
2019-01-31T07:38:29.435Z,0.09
2019-01-31T07:40:59.132Z,0.18
2019-01-31T07:44:21.889Z,0.06
2019-01-31T07:46:48.635Z,0.03
2019-01-31T07:49:15.392Z,0.14
2019-01-31T07:51:42.046Z,0.12
2019-01-31T07:54:09.746Z,0.06
2019-01-31T07:56:36.303Z,0.09
2019-01-31T07:59:03.019Z,0.18
2019-01-31T08:01:29.611Z,0.16
2019-01-31T08:04:02.645Z,0.15
2019-01-31T08:06:24.788Z,0.19
2019-01-31T08:08:51.382Z,0.21
2019-01-31T08:11:18.090Z,0.18
2019-01-31T08:13:44.730Z,0.24
2019-01-31T08:16:11.294Z,0.20
2019-01-31T08:18:38.010Z,0.24
2019-01-31T08:21:05.046Z,0.34
2019-01-31T08:23:31.621Z,0.41
2019-01-31T08:25:58.149Z,0.25
2019-01-31T08:28:24.720Z,0.23
2019-01-31T08:30:51.333Z,0.21
2019-01-31T08:33:17.940Z,0.14
2019-01-31T08:35:44.720Z,0.26
2019-01-31T08:38:12.118Z,0.19
2019-01-31T08:40:38.827Z,0.14
2019-01-31T08:43:05.456Z,0.11
2019-01-31T08:45:32.162Z,0.25
2019-01-31T08:47:58.768Z,0.37
2019-01-31T08:50:29.358Z,0.22
2019-01-31T08:52:55.905Z,0.38
2019-01-31T08:55:22.527Z,0.39
2019-01-31T08:57:49.065Z,0.50
2019-01-31T09:00:19.384Z,0.38
2019-01-31T09:02:45.946Z,0.45
2019-01-31T09:05:12.625Z,0.49
2019-01-31T09:07:39.289Z,0.35
2019-01-31T09:10:11.578Z,0.47
2019-01-31T09:12:38.149Z,0.54
2019-01-31T09:15:12.408Z,0.52
2019-01-31T09:17:40.882Z,0.60
2019-01-31T09:20:13.075Z,0.51
2019-01-31T09:22:45.250Z,0.50
2019-01-31T09:25:15.737Z,0.52
2019-01-31T09:27:48.119Z,0.50
2019-01-31T09:30:20.481Z,0.48
2019-01-31T09:32:52.767Z,0.44
2019-01-31T09:35:25.064Z,0.26
2019-01-31T09:37:57.421Z,0.23
2019-01-31T09:40:29.753Z,0.26
2019-01-31T09:43:02.070Z,0.40
2019-01-31T09:45:32.973Z,0.34
2019-01-31T09:48:05.275Z,0.35
2019-01-31T09:50:37.594Z,0.25
2019-01-31T09:53:09.941Z,0.40
2019-01-31T09:55:42.261Z,0.39
2019-01-31T09:58:27.937Z,0.33
2019-01-31T10:00:59.633Z,0.37
2019-01-31T10:03:30.031Z,0.47
2019-01-31T10:06:00.582Z,0.52
2019-01-31T10:08:32.898Z,0.46
2019-01-31T10:11:03.298Z,0.30
2019-01-31T10:13:35.725Z,0.39
2019-01-31T10:16:08.072Z,0.39
2019-01-31T10:18:40.501Z,0.38
2019-01-31T10:21:12.933Z,0.33
2019-01-31T10:23:43.506Z,0.45
2019-01-31T10:26:15.876Z,0.53
2019-01-31T10:28:47.477Z,0.46
2019-01-31T10:31:19.754Z,0.43
2019-01-31T10:33:52.065Z,0.53
2019-01-31T10:36:24.360Z,0.53
2019-01-31T10:38:56.780Z,0.48
2019-01-31T10:41:29.082Z,0.67
2019-01-31T10:43:59.485Z,0.60
2019-01-31T10:46:32.772Z,0.61
2019-01-31T10:49:06.300Z,0.60
2019-01-31T10:51:40.557Z,0.61
2019-01-31T10:54:10.933Z,0.62
2019-01-31T10:56:44.223Z,0.57
2019-01-31T10:59:13.628Z,0.60
2019-01-31T11:01:45.980Z,0.49
2019-01-31T11:04:18.310Z,0.52
2019-01-31T11:06:50.611Z,0.59
2019-01-31T11:09:23.002Z,0.55
2019-01-31T11:11:55.376Z,0.43
2019-01-31T11:14:27.646Z,0.48
2019-01-31T11:16:58.249Z,0.67
2019-01-31T11:19:30.530Z,0.66
2019-01-31T11:22:02.831Z,0.84
2019-01-31T11:24:35.156Z,0.87
2019-01-31T11:27:05.557Z,0.82
2019-01-31T11:29:37.824Z,0.88
2019-01-31T11:32:10.126Z,0.90
2019-01-31T11:34:42.466Z,0.83
2019-01-31T11:37:14.942Z,0.78
2019-01-31T11:39:47.286Z,0.79
2019-01-31T11:42:17.735Z,0.73
2019-01-31T11:44:50.030Z,0.78
2019-01-31T11:47:22.811Z,0.70
2019-01-31T11:49:55.237Z,0.72
2019-01-31T11:52:27.602Z,0.72
2019-01-31T11:54:59.956Z,0.63
2019-01-31T11:57:32.304Z,0.68
2019-01-31T11:59:59.956Z,0.60
2019-01-31T12:02:26.508Z,0.57
2019-01-31T12:04:53.298Z,0.61
2019-01-31T12:07:19.844Z,0.51
2019-01-31T12:09:46.436Z,0.37
2019-01-31T12:12:12.996Z,0.48
2019-01-31T12:14:39.602Z,0.46
2019-01-31T12:17:06.165Z,0.47
2019-01-31T12:19:33.283Z,0.53
2019-01-31T12:22:00.953Z,0.62
2019-01-31T12:24:27.487Z,0.66
2019-01-31T12:26:54.892Z,0.62
2019-01-31T12:29:21.475Z,0.68
2019-01-31T12:31:48.163Z,0.60
2019-01-31T12:34:15.073Z,0.64
2019-01-31T12:36:41.627Z,0.65
2019-01-31T12:39:09.332Z,0.63
2019-01-31T12:41:36.062Z,0.66
2019-01-31T12:44:02.581Z,0.63
2019-01-31T12:46:32.681Z,0.67
2019-01-31T12:49:55.973Z,0.69
2019-01-31T12:52:22.549Z,0.62
2019-01-31T12:54:49.136Z,0.61
2019-01-31T12:57:15.806Z,0.64
2019-01-31T12:59:42.419Z,0.72
2019-01-31T13:02:08.987Z,0.62
2019-01-31T13:04:36.253Z,0.65
2019-01-31T13:07:03.157Z,0.74
2019-01-31T13:09:30.378Z,0.72
2019-01-31T13:11:57.050Z,0.67
2019-01-31T13:14:25.053Z,0.70
2019-01-31T13:17:48.978Z,0.73
2019-01-31T13:20:20.535Z,0.69
2019-01-31T13:22:51.539Z,0.75
2019-01-31T13:25:18.236Z,0.69
2019-01-31T13:27:44.992Z,0.67
2019-01-31T13:30:16.831Z,0.69
2019-01-31T13:32:43.422Z,0.69
2019-01-31T13:35:13.100Z,0.68
2019-01-31T13:37:39.807Z,0.55
2019-01-31T13:40:12.082Z,0.59
2019-01-31T13:42:38.679Z,0.75
2019-01-31T13:45:10.635Z,0.66
2019-01-31T13:47:37.266Z,0.66
2019-01-31T13:50:08.675Z,0.59
2019-01-31T13:52:35.193Z,0.60
2019-01-31T13:55:02.315Z,0.68
2019-01-31T13:57:28.879Z,0.62
2019-01-31T13:59:55.409Z,0.62
2019-01-31T14:02:22.006Z,0.63
2019-01-31T14:04:48.639Z,0.63
2019-01-31T14:07:15.198Z,0.60
2019-01-31T14:09:41.756Z,0.68
2019-01-31T14:12:08.430Z,0.59
2019-01-31T14:14:35.580Z,0.58
2019-01-31T14:17:02.155Z,0.56
2019-01-31T14:19:28.841Z,0.49
2019-01-31T14:21:55.522Z,0.48
2019-01-31T14:24:22.109Z,0.44
2019-01-31T14:26:48.702Z,0.46
2019-01-31T14:29:15.365Z,0.48
2019-01-31T14:31:41.967Z,0.51
2019-01-31T14:34:09.180Z,0.58
2019-01-31T14:36:36.012Z,0.59
2019-01-31T14:39:04.298Z,0.38
2019-01-31T14:41:32.144Z,0.41
2019-01-31T14:44:00.632Z,0.44
2019-01-31T14:46:27.189Z,0.45
2019-01-31T14:48:53.746Z,0.45
2019-01-31T14:51:20.340Z,0.53
2019-01-31T14:53:46.885Z,0.63
2019-01-31T14:56:13.461Z,0.61
2019-01-31T14:58:40.078Z,0.50
2019-01-31T15:01:06.907Z,0.53
2019-01-31T15:03:33.547Z,0.57
2019-01-31T15:06:00.140Z,0.71
2019-01-31T15:08:26.703Z,0.66
2019-01-31T15:10:53.298Z,0.39
2019-01-31T15:13:20.953Z,0.48
2019-01-31T15:15:47.629Z,0.46
2019-01-31T15:18:14.295Z,0.37
2019-01-31T15:20:42.170Z,0.50
2019-01-31T15:23:09.405Z,0.50
2019-01-31T15:25:36.207Z,0.51
2019-01-31T15:28:02.752Z,0.25
2019-01-31T15:30:32.610Z,0.37
2019-01-31T15:32:59.623Z,0.40
2019-01-31T15:36:22.632Z,0.48
2019-01-31T15:38:49.229Z,0.54
2019-01-31T15:41:15.866Z,0.55
2019-01-31T15:43:42.583Z,0.55
2019-01-31T15:46:09.203Z,0.59
2019-01-31T15:48:36.054Z,0.48
2019-01-31T15:51:04.528Z,0.44
2019-01-31T15:53:31.316Z,0.37
2019-01-31T15:55:57.870Z,0.33
2019-01-31T15:58:24.462Z,0.39
2019-01-31T16:00:52.639Z,0.28
2019-01-31T16:03:20.595Z,0.18
2019-01-31T16:05:47.236Z,0.16
2019-01-31T16:08:15.328Z,0.07
2019-01-31T16:10:42.272Z,0.05
2019-01-31T16:13:10.949Z,0.00
2019-01-31T16:15:39.798Z,0.01
2019-01-31T16:18:09.096Z,0.09
2019-01-31T16:20:35.657Z,0.22
2019-01-31T16:23:03.743Z,0.26
2019-01-31T16:25:30.352Z,0.14
2019-01-31T16:27:57.044Z,0.03
2019-01-31T16:30:23.842Z,0.11
2019-01-31T16:32:50.428Z,0.25
2019-01-31T16:35:18.286Z,0.31
2019-01-31T16:37:47.650Z,0.29
2019-01-31T16:40:16.123Z,0.31
2019-01-31T16:42:42.698Z,0.38
2019-01-31T16:45:12.353Z,0.30
2019-01-31T16:47:39.015Z,0.13
2019-01-31T16:50:10.920Z,0.01
2019-01-31T16:52:37.454Z,-0.07
2019-01-31T16:55:09.851Z,-0.06
2019-01-31T16:57:37.108Z,0.01
2019-01-31T17:00:09.530Z,0.07
2019-01-31T17:02:36.066Z,0.13
2019-01-31T17:05:07.770Z,0.22
2019-01-31T17:07:35.839Z,0.30
2019-01-31T17:10:05.346Z,0.35
2019-01-31T17:12:31.917Z,0.30
2019-01-31T17:14:59.684Z,0.36
2019-01-31T17:17:26.242Z,0.39
2019-01-31T17:19:53.031Z,0.43
2019-01-31T17:22:19.828Z,0.40
2019-01-31T17:24:46.698Z,0.21
2019-01-31T17:27:13.370Z,0.07
2019-01-31T17:29:40.261Z,0.06
2019-01-31T17:32:06.822Z,0.04
2019-01-31T17:34:33.382Z,0.00
2019-01-31T17:36:59.959Z,0.01
2019-01-31T17:39:26.667Z,0.01
2019-01-31T17:41:53.356Z,-0.02
2019-01-31T17:44:19.973Z,0.02
2019-01-31T17:46:46.730Z,0.01
2019-01-31T17:49:13.300Z,-0.02
2019-01-31T17:51:40.313Z,-0.05
2019-01-31T17:54:08.916Z,0.01
2019-01-31T17:56:35.539Z,-0.04
2019-01-31T17:59:02.428Z,-0.04
2019-01-31T18:01:29.578Z,-0.03
2019-01-31T18:03:56.516Z,-0.09
2019-01-31T18:06:23.665Z,-0.04
2019-01-31T18:08:50.431Z,-0.01
2019-01-31T18:11:17.094Z,-0.01
2019-01-31T18:13:43.815Z,-0.04
2019-01-31T18:16:10.943Z,-0.04
2019-01-31T18:18:37.712Z,-0.01
2019-01-31T18:21:04.321Z,0.01
2019-01-31T18:23:31.079Z,-0.07
2019-01-31T18:25:57.637Z,-0.11
2019-01-31T18:28:24.580Z,-0.01
2019-01-31T18:30:51.159Z,0.09
2019-01-31T18:34:14.715Z,0.13
2019-01-31T18:36:41.278Z,0.03
2019-01-31T18:39:07.961Z,0.12
2019-01-31T18:41:35.819Z,-0.03
2019-01-31T18:44:02.661Z,0.03
2019-01-31T18:46:29.754Z,-0.02
2019-01-31T18:48:56.716Z,-0.01
2019-01-31T18:51:25.363Z,0.11
2019-01-31T18:53:52.034Z,0.07
2019-01-31T18:56:18.800Z,0.03
2019-01-31T18:58:45.555Z,0.07
2019-01-31T19:01:12.399Z,0.18
2019-01-31T19:03:39.041Z,0.25
2019-01-31T19:06:05.640Z,0.18
2019-01-31T19:08:32.220Z,0.01
2019-01-31T19:10:58.857Z,0.03
2019-01-31T19:13:25.449Z,0.20
2019-01-31T19:16:04.151Z,0.10
2019-01-31T19:18:21.026Z,0.04
2019-01-31T19:20:47.697Z,-0.07
2019-01-31T19:23:14.315Z,-0.09
2019-01-31T19:25:41.082Z,0.01
2019-01-31T19:28:07.986Z,0.06
2019-01-31T19:30:37.575Z,0.03
2019-01-31T19:33:06.325Z,0.13
2019-01-31T19:35:33.608Z,0.12
2019-01-31T19:38:02.575Z,0.06
2019-01-31T19:40:33.789Z,0.01
2019-01-31T19:43:01.077Z,-0.02
2019-01-31T19:45:32.449Z,0.09
2019-01-31T19:47:59.207Z,0.13
2019-01-31T19:50:26.704Z,0.20
2019-01-31T19:52:55.568Z,0.23
2019-01-31T19:55:24.313Z,0.23
2019-01-31T19:57:51.152Z,0.22
2019-01-31T20:00:21.987Z,0.04
2019-01-31T20:02:48.536Z,0.05
2019-01-31T20:05:15.521Z,0.01
2019-01-31T20:07:42.544Z,0.00
2019-01-31T20:10:14.733Z,0.01
2019-01-31T20:12:41.373Z,-0.01
2019-01-31T20:15:10.662Z,-0.05
2019-01-31T20:17:37.582Z,-0.04
2019-01-31T20:20:11.979Z,0.04
2019-01-31T20:22:39.071Z,0.13
2019-01-31T20:25:09.475Z,0.05
2019-01-31T20:27:36.781Z,-0.01
2019-01-31T20:30:11.282Z,-0.01
2019-01-31T20:32:38.582Z,0.13
2019-01-31T20:35:11.239Z,0.02
2019-01-31T20:37:38.210Z,0.10
2019-01-31T20:40:10.416Z,0.20
2019-01-31T20:42:37.250Z,0.15
2019-01-31T20:45:08.626Z,0.09
2019-01-31T20:47:35.643Z,0.01
2019-01-31T20:50:08.079Z,-0.03
2019-01-31T20:52:34.825Z,-0.01
2019-01-31T20:55:01.525Z,0.05
2019-01-31T20:57:28.385Z,0.15
2019-01-31T20:59:55.069Z,0.12
2019-01-31T21:02:22.759Z,0.06
2019-01-31T21:04:49.715Z,0.02
2019-01-31T21:07:16.561Z,0.01
2019-01-31T21:09:43.360Z,0.05
2019-01-31T21:12:10.013Z,0.03
2019-01-31T21:14:37.166Z,0.05
2019-01-31T21:17:07.058Z,0.07
2019-01-31T21:19:34.057Z,0.04
2019-01-31T21:22:00.816Z,0.19
2019-01-31T21:24:27.842Z,0.28
2019-01-31T21:26:54.750Z,0.29
2019-01-31T21:29:21.416Z,0.21
2019-01-31T21:31:50.191Z,0.12
2019-01-31T21:34:17.025Z,0.04
2019-01-31T21:36:43.907Z,-0.03
2019-01-31T21:39:10.656Z,-0.04
2019-01-31T21:41:37.758Z,0.08
2019-01-31T21:44:05.011Z,0.18
2019-01-31T21:46:32.006Z,0.19
2019-01-31T21:48:58.691Z,0.26
2019-01-31T21:51:29.542Z,0.32
2019-01-31T21:53:56.520Z,0.20
2019-01-31T21:56:23.222Z,0.10
2019-01-31T21:58:49.928Z,0.21
2019-01-31T22:01:16.713Z,0.29
2019-01-31T22:03:43.741Z,0.34
2019-01-31T22:06:22.617Z,0.32
2019-01-31T22:08:51.503Z,0.39
2019-01-31T22:11:18.254Z,0.42
2019-01-31T22:13:44.818Z,0.50
2019-01-31T22:16:11.404Z,0.54
2019-01-31T22:18:38.040Z,0.57
2019-01-31T22:21:04.682Z,0.52
2019-01-31T22:23:31.426Z,0.57
2019-01-31T22:25:58.023Z,0.59
2019-01-31T22:28:24.607Z,0.55
2019-01-31T22:30:51.306Z,0.44
2019-01-31T22:33:18.163Z,0.48
2019-01-31T22:35:45.127Z,0.46
2019-01-31T22:38:11.963Z,0.41
2019-01-31T22:40:38.606Z,0.51
2019-01-31T22:43:05.263Z,0.59
2019-01-31T22:45:31.912Z,0.50
2019-01-31T22:48:01.745Z,0.57
2019-01-31T22:50:28.295Z,0.61
2019-01-31T22:52:54.928Z,0.60
2019-01-31T22:55:24.968Z,0.56
2019-01-31T22:57:51.547Z,0.60
2019-01-31T23:00:24.203Z,0.54
2019-01-31T23:02:52.632Z,0.57
2019-01-31T23:05:19.270Z,0.45
2019-01-31T23:07:51.598Z,0.44
2019-01-31T23:10:17.851Z,0.48
2019-01-31T23:12:44.499Z,0.53
2019-01-31T23:15:11.199Z,0.53
2019-01-31T23:17:37.867Z,0.58
2019-01-31T23:20:09.348Z,0.58
2019-01-31T23:22:36.014Z,0.54
2019-01-31T23:25:05.080Z,0.48
2019-01-31T23:27:31.874Z,0.58
2019-01-31T23:29:58.451Z,0.51
2019-01-31T23:32:25.107Z,0.50
2019-01-31T23:34:51.637Z,0.51
2019-01-31T23:37:18.299Z,0.48
2019-01-31T23:39:44.865Z,0.49
2019-01-31T23:42:11.459Z,0.49
2019-01-31T23:44:38.114Z,0.50
2019-01-31T23:47:04.731Z,0.59
2019-01-31T23:49:31.270Z,0.53
2019-01-31T23:51:58.142Z,0.58
2019-01-31T23:54:24.689Z,0.48
2019-01-31T23:56:52.473Z,0.26
2019-01-31T23:59:19.037Z,0.18
